sensor_id;sensor_type;location;lat;lon;timestamp;pressure;altitude;pressure_sealevel;temperature;humidity
13486;BME280;6815;59.336;17.998;2023-02-16T00:00:31;52262.81;;;-145.37;81.96
13486;BME280;6815;59.336;17.998;2023-02-16T00:02:57;52220.91;;;-145.37;83.02
13486;BME280;6815;59.336;17.998;2023-02-16T00:05:33;52266.81;;;-145.37;81.68
13486;BME280;6815;59.336;17.998;2023-02-16T00:08:00;52228.88;;;-145.37;81.68
13486;BME280;6815;59.336;17.998;2023-02-16T00:10:30;52218.91;;;-145.37;81.72
13486;BME280;6815;59.336;17.998;2023-02-16T00:12:58;52250.84;;;-145.37;82.52
13486;BME280;6815;59.336;17.998;2023-02-16T00:15:42;52224.91;;;-145.37;82.63
13486;BME280;6815;59.336;17.998;2023-02-16T00:18:20;52272.81;;;-145.37;82.21
13486;BME280;6815;59.336;17.998;2023-02-16T00:20:47;52258.84;;;-145.37;82.72
13486;BME280;6815;59.336;17.998;2023-02-16T00:23:15;52250.84;;;-145.37;82.25
13486;BME280;6815;59.336;17.998;2023-02-16T00:25:41;52250.84;;;-145.37;82.84
13486;BME280;6815;59.336;17.998;2023-02-16T00:28:17;52230.88;;;-145.37;82.36
13486;BME280;6815;59.336;17.998;2023-02-16T00:30:44;52246.84;;;-145.37;82.85
13486;BME280;6815;59.336;17.998;2023-02-16T00:33:14;52192.97;;;-145.37;82.39
13486;BME280;6815;59.336;17.998;2023-02-16T00:35:40;52254.84;;;-145.37;82.63
13486;BME280;6815;59.336;17.998;2023-02-16T00:38:06;52270.81;;;-145.37;82.69
13486;BME280;6815;59.336;17.998;2023-02-16T00:40:34;52208.94;;;-145.37;82.30
13486;BME280;6815;59.336;17.998;2023-02-16T00:42:59;52214.91;;;-145.37;82.75
13486;BME280;6815;59.336;17.998;2023-02-16T00:45:27;52226.91;;;-145.37;82.94
13486;BME280;6815;59.336;17.998;2023-02-16T00:47:53;52220.91;;;-145.37;82.38
13486;BME280;6815;59.336;17.998;2023-02-16T00:50:26;52224.91;;;-145.37;82.33
13486;BME280;6815;59.336;17.998;2023-02-16T00:52:52;52192.97;;;-145.37;82.25
13486;BME280;6815;59.336;17.998;2023-02-16T00:55:21;52282.78;;;-145.37;82.46
13486;BME280;6815;59.336;17.998;2023-02-16T01:00:41;52244.84;;;-145.37;82.47
13486;BME280;6815;59.336;17.998;2023-02-16T01:03:17;52226.91;;;-145.37;82.96
13486;BME280;6815;59.336;17.998;2023-02-16T01:05:44;52252.84;;;-145.37;83.28
13486;BME280;6815;59.336;17.998;2023-02-16T01:08:15;52236.88;;;-145.37;83.59
13486;BME280;6815;59.336;17.998;2023-02-16T01:11:03;52288.78;;;-145.37;82.91
13486;BME280;6815;59.336;17.998;2023-02-16T01:13:37;52234.88;;;-145.37;82.85
13486;BME280;6815;59.336;17.998;2023-02-16T01:16:03;52226.91;;;-145.37;82.85
13486;BME280;6815;59.336;17.998;2023-02-16T01:18:28;52208.94;;;-145.37;82.89
13486;BME280;6815;59.336;17.998;2023-02-16T01:20:54;52238.88;;;-145.37;82.35
13486;BME280;6815;59.336;17.998;2023-02-16T01:23:20;52210.91;;;-145.37;81.83
13486;BME280;6815;59.336;17.998;2023-02-16T01:25:46;52228.88;;;-145.37;82.13
13486;BME280;6815;59.336;17.998;2023-02-16T01:28:20;52210.91;;;-145.37;83.50
13486;BME280;6815;59.336;17.998;2023-02-16T01:30:46;52246.84;;;-145.37;83.00
13486;BME280;6815;59.336;17.998;2023-02-16T01:33:13;52226.91;;;-145.37;83.92
13486;BME280;6815;59.336;17.998;2023-02-16T01:35:39;52228.88;;;-145.37;83.43
13486;BME280;6815;59.336;17.998;2023-02-16T01:38:05;52232.88;;;-145.37;83.12
13486;BME280;6815;59.336;17.998;2023-02-16T01:43:13;52238.88;;;-145.37;82.57
13486;BME280;6815;59.336;17.998;2023-02-16T01:45:45;52218.91;;;-145.37;83.19
13486;BME280;6815;59.336;17.998;2023-02-16T01:48:21;52206.94;;;-145.37;83.54
13486;BME280;6815;59.336;17.998;2023-02-16T01:51:21;52214.91;;;-145.37;83.00
13486;BME280;6815;59.336;17.998;2023-02-16T01:53:53;52254.84;;;-145.37;83.62
13486;BME280;6815;59.336;17.998;2023-02-16T01:56:35;52242.88;;;-145.37;83.66
13486;BME280;6815;59.336;17.998;2023-02-16T01:59:13;52246.84;;;-145.37;83.58
13486;BME280;6815;59.336;17.998;2023-02-16T02:01:57;52244.84;;;-145.37;83.67
13486;BME280;6815;59.336;17.998;2023-02-16T02:04:39;52232.88;;;-145.37;84.18
13486;BME280;6815;59.336;17.998;2023-02-16T02:07:58;52262.81;;;-145.37;84.04
13486;BME280;6815;59.336;17.998;2023-02-16T02:13:26;52292.78;;;-145.37;83.98
13486;BME280;6815;59.336;17.998;2023-02-16T02:15:55;52208.94;;;-145.37;82.88
13486;BME280;6815;59.336;17.998;2023-02-16T02:18:21;52232.88;;;-145.37;83.89
13486;BME280;6815;59.336;17.998;2023-02-16T02:21:13;52246.84;;;-145.37;83.92
13486;BME280;6815;59.336;17.998;2023-02-16T02:24:33;52268.81;;;-145.37;83.59
13486;BME280;6815;59.336;17.998;2023-02-16T02:27:12;52190.97;;;-145.37;83.02
13486;BME280;6815;59.336;17.998;2023-02-16T02:38:26;52244.84;;;-145.37;82.94
13486;BME280;6815;59.336;17.998;2023-02-16T02:43:45;52248.84;;;-145.37;83.65
13486;BME280;6815;59.336;17.998;2023-02-16T02:46:25;52224.91;;;-145.37;83.45
13486;BME280;6815;59.336;17.998;2023-02-16T02:48:51;52284.78;;;-145.37;84.07
13486;BME280;6815;59.336;17.998;2023-02-16T02:51:17;52216.91;;;-145.37;83.79
13486;BME280;6815;59.336;17.998;2023-02-16T02:54:16;52240.88;;;-145.37;83.47
13486;BME280;6815;59.336;17.998;2023-02-16T03:00:08;52238.88;;;-145.37;83.19
13486;BME280;6815;59.336;17.998;2023-02-16T03:02:57;52266.81;;;-145.37;83.20
13486;BME280;6815;59.336;17.998;2023-02-16T03:05:26;52256.84;;;-145.37;83.14
13486;BME280;6815;59.336;17.998;2023-02-16T03:07:57;52214.91;;;-145.37;83.89
13486;BME280;6815;59.336;17.998;2023-02-16T03:10:32;52242.88;;;-145.37;83.69
13486;BME280;6815;59.336;17.998;2023-02-16T03:13:32;52268.81;;;-145.37;83.57
13486;BME280;6815;59.336;17.998;2023-02-16T03:16:04;52202.94;;;-145.37;83.93
13486;BME280;6815;59.336;17.998;2023-02-16T03:18:32;52212.91;;;-145.37;83.73
13486;BME280;6815;59.336;17.998;2023-02-16T03:21:17;52242.88;;;-145.37;83.94
13486;BME280;6815;59.336;17.998;2023-02-16T03:24:04;52204.94;;;-145.37;83.94
13486;BME280;6815;59.336;17.998;2023-02-16T03:26:50;52214.91;;;-145.37;85.40
13486;BME280;6815;59.336;17.998;2023-02-16T03:29:35;52226.91;;;-145.37;86.30
13486;BME280;6815;59.336;17.998;2023-02-16T03:32:01;52232.88;;;-145.37;86.26
13486;BME280;6815;59.336;17.998;2023-02-16T03:34:28;52194.94;;;-145.37;84.91
13486;BME280;6815;59.336;17.998;2023-02-16T03:36:56;52272.81;;;-145.37;84.76
13486;BME280;6815;59.336;17.998;2023-02-16T03:39:24;52262.81;;;-145.37;84.66
13486;BME280;6815;59.336;17.998;2023-02-16T03:41:51;52272.81;;;-145.37;84.35
13486;BME280;6815;59.336;17.998;2023-02-16T03:44:18;52256.84;;;-145.37;84.12
13486;BME280;6815;59.336;17.998;2023-02-16T03:46:47;52236.88;;;-145.37;84.28
13486;BME280;6815;59.336;17.998;2023-02-16T03:49:19;52214.91;;;-145.37;84.20
13486;BME280;6815;59.336;17.998;2023-02-16T03:51:45;52186.97;;;-145.37;83.69
13486;BME280;6815;59.336;17.998;2023-02-16T03:54:20;52208.94;;;-145.37;84.46
13486;BME280;6815;59.336;17.998;2023-02-16T03:56:45;52242.88;;;-145.37;85.06
13486;BME280;6815;59.336;17.998;2023-02-16T03:59:12;52220.91;;;-145.37;84.18
13486;BME280;6815;59.336;17.998;2023-02-16T04:01:42;52294.75;;;-145.37;83.99
13486;BME280;6815;59.336;17.998;2023-02-16T04:04:08;52232.88;;;-145.37;83.77
13486;BME280;6815;59.336;17.998;2023-02-16T04:06:33;52268.81;;;-145.37;84.47
13486;BME280;6815;59.336;17.998;2023-02-16T04:08:59;52202.94;;;-145.37;85.02
13486;BME280;6815;59.336;17.998;2023-02-16T04:11:24;52212.91;;;-145.37;84.42
13486;BME280;6815;59.336;17.998;2023-02-16T04:14:08;52242.88;;;-145.37;84.55
13486;BME280;6815;59.336;17.998;2023-02-16T04:16:34;52292.78;;;-145.37;84.37
13486;BME280;6815;59.336;17.998;2023-02-16T04:18:59;52262.81;;;-145.37;84.62
13486;BME280;6815;59.336;17.998;2023-02-16T04:21:25;52248.84;;;-145.37;84.48
13486;BME280;6815;59.336;17.998;2023-02-16T04:23:50;52222.91;;;-145.37;84.73
13486;BME280;6815;59.336;17.998;2023-02-16T04:26:16;52224.91;;;-145.37;84.06
13486;BME280;6815;59.336;17.998;2023-02-16T04:28:41;52210.91;;;-145.37;85.09
13486;BME280;6815;59.336;17.998;2023-02-16T04:31:07;52214.91;;;-145.37;84.08
13486;BME280;6815;59.336;17.998;2023-02-16T04:33:33;52202.94;;;-145.37;83.81
13486;BME280;6815;59.336;17.998;2023-02-16T04:35:58;52278.78;;;-145.37;84.97
13486;BME280;6815;59.336;17.998;2023-02-16T04:38:24;52240.88;;;-145.37;85.16
13486;BME280;6815;59.336;17.998;2023-02-16T04:40:51;52216.91;;;-145.37;84.62
13486;BME280;6815;59.336;17.998;2023-02-16T04:43:16;52216.91;;;-145.37;85.91
13486;BME280;6815;59.336;17.998;2023-02-16T04:45:42;52248.84;;;-145.37;84.81
13486;BME280;6815;59.336;17.998;2023-02-16T04:48:07;52232.88;;;-145.37;84.95
13486;BME280;6815;59.336;17.998;2023-02-16T04:50:33;52224.91;;;-145.37;85.56
13486;BME280;6815;59.336;17.998;2023-02-16T04:52:58;52260.84;;;-145.37;85.29
13486;BME280;6815;59.336;17.998;2023-02-16T04:55:23;52206.94;;;-145.37;85.83
13486;BME280;6815;59.336;17.998;2023-02-16T04:57:50;52270.81;;;-145.37;85.83
13486;BME280;6815;59.336;17.998;2023-02-16T05:00:15;52210.91;;;-145.37;85.58
13486;BME280;6815;59.336;17.998;2023-02-16T05:02:44;52274.81;;;-145.37;86.64
13486;BME280;6815;59.336;17.998;2023-02-16T05:05:09;52218.91;;;-145.37;86.94
13486;BME280;6815;59.336;17.998;2023-02-16T05:07:35;52228.88;;;-145.37;87.06
13486;BME280;6815;59.336;17.998;2023-02-16T05:10:01;52238.88;;;-145.37;85.82
13486;BME280;6815;59.336;17.998;2023-02-16T05:12:26;52188.97;;;-145.37;87.95
13486;BME280;6815;59.336;17.998;2023-02-16T05:15:14;52226.91;;;-145.37;88.21
13486;BME280;6815;59.336;17.998;2023-02-16T05:17:40;52222.91;;;-145.37;88.28
13486;BME280;6815;59.336;17.998;2023-02-16T05:20:06;52246.84;;;-145.37;88.05
13486;BME280;6815;59.336;17.998;2023-02-16T05:22:32;52216.91;;;-145.37;88.22
13486;BME280;6815;59.336;17.998;2023-02-16T05:25:00;52254.84;;;-145.37;87.91
13486;BME280;6815;59.336;17.998;2023-02-16T05:27:28;52248.84;;;-145.37;87.88
13486;BME280;6815;59.336;17.998;2023-02-16T05:29:56;52232.88;;;-145.37;87.79
13486;BME280;6815;59.336;17.998;2023-02-16T05:32:22;52240.88;;;-145.37;88.34
13486;BME280;6815;59.336;17.998;2023-02-16T05:34:48;52220.91;;;-145.37;88.29
13486;BME280;6815;59.336;17.998;2023-02-16T05:37:16;52182.97;;;-145.37;87.21
13486;BME280;6815;59.336;17.998;2023-02-16T05:39:42;52274.81;;;-145.37;88.46
13486;BME280;6815;59.336;17.998;2023-02-16T05:42:08;52222.91;;;-145.37;88.35
13486;BME280;6815;59.336;17.998;2023-02-16T05:44:34;52208.94;;;-145.37;87.94
13486;BME280;6815;59.336;17.998;2023-02-16T05:46:59;52226.91;;;-145.37;88.14
13486;BME280;6815;59.336;17.998;2023-02-16T05:49:25;52212.91;;;-145.37;88.19
13486;BME280;6815;59.336;17.998;2023-02-16T05:51:50;52240.88;;;-145.37;87.41
13486;BME280;6815;59.336;17.998;2023-02-16T05:54:17;52220.91;;;-145.37;87.76
13486;BME280;6815;59.336;17.998;2023-02-16T05:56:44;52250.84;;;-145.37;88.14
13486;BME280;6815;59.336;17.998;2023-02-16T05:59:11;52202.94;;;-145.37;87.79
13486;BME280;6815;59.336;17.998;2023-02-16T06:01:36;52262.81;;;-145.37;87.96
13486;BME280;6815;59.336;17.998;2023-02-16T06:04:07;52250.84;;;-145.37;87.85
13486;BME280;6815;59.336;17.998;2023-02-16T06:06:34;52230.88;;;-145.37;87.91
13486;BME280;6815;59.336;17.998;2023-02-16T06:09:00;52210.91;;;-145.37;88.47
13486;BME280;6815;59.336;17.998;2023-02-16T06:11:26;52188.97;;;-145.37;89.09
13486;BME280;6815;59.336;17.998;2023-02-16T06:14:13;52222.91;;;-145.37;88.96
13486;BME280;6815;59.336;17.998;2023-02-16T06:16:41;52250.84;;;-145.37;87.60
13486;BME280;6815;59.336;17.998;2023-02-16T06:19:09;52222.91;;;-145.37;88.34
13486;BME280;6815;59.336;17.998;2023-02-16T06:21:36;52214.91;;;-145.37;89.56
13486;BME280;6815;59.336;17.998;2023-02-16T06:24:03;52262.81;;;-145.37;89.75
13486;BME280;6815;59.336;17.998;2023-02-16T06:26:29;52244.84;;;-145.37;88.70
13486;BME280;6815;59.336;17.998;2023-02-16T06:28:57;52208.94;;;-145.37;89.04
13486;BME280;6815;59.336;17.998;2023-02-16T06:31:24;52216.91;;;-145.37;89.69
13486;BME280;6815;59.336;17.998;2023-02-16T06:33:51;52214.91;;;-145.37;89.85
13486;BME280;6815;59.336;17.998;2023-02-16T06:36:17;52230.88;;;-145.37;89.70
13486;BME280;6815;59.336;17.998;2023-02-16T06:38:44;52260.84;;;-145.37;90.64
13486;BME280;6815;59.336;17.998;2023-02-16T06:41:10;52248.84;;;-145.37;89.69
13486;BME280;6815;59.336;17.998;2023-02-16T06:44:05;52188.97;;;-145.37;90.25
13486;BME280;6815;59.336;17.998;2023-02-16T06:46:32;52254.84;;;-145.37;89.51
13486;BME280;6815;59.336;17.998;2023-02-16T06:48:58;52200.94;;;-145.37;90.27
13486;BME280;6815;59.336;17.998;2023-02-16T06:51:27;52246.84;;;-145.37;90.49
13486;BME280;6815;59.336;17.998;2023-02-16T06:54:07;52214.91;;;-145.37;91.03
13486;BME280;6815;59.336;17.998;2023-02-16T06:56:32;52260.84;;;-145.37;90.59
13486;BME280;6815;59.336;17.998;2023-02-16T06:58:59;52244.84;;;-145.37;91.41
13486;BME280;6815;59.336;17.998;2023-02-16T07:01:24;52240.88;;;-145.37;91.94
13486;BME280;6815;59.336;17.998;2023-02-16T07:03:51;52184.97;;;-145.37;92.11
13486;BME280;6815;59.336;17.998;2023-02-16T07:06:18;52238.88;;;-145.37;91.46
13486;BME280;6815;59.336;17.998;2023-02-16T07:08:44;52220.91;;;-145.37;90.75
13486;BME280;6815;59.336;17.998;2023-02-16T07:11:09;52250.84;;;-145.37;91.07
13486;BME280;6815;59.336;17.998;2023-02-16T07:13:35;52248.84;;;-145.37;91.60
13486;BME280;6815;59.336;17.998;2023-02-16T07:16:05;52214.91;;;-145.37;91.47
13486;BME280;6815;59.336;17.998;2023-02-16T07:18:31;52196.94;;;-145.37;91.40
13486;BME280;6815;59.336;17.998;2023-02-16T07:20:57;52240.88;;;-145.37;91.29
13486;BME280;6815;59.336;17.998;2023-02-16T07:23:23;52224.91;;;-145.37;91.24
13486;BME280;6815;59.336;17.998;2023-02-16T07:25:48;52226.91;;;-145.37;91.88
13486;BME280;6815;59.336;17.998;2023-02-16T07:28:14;52226.91;;;-145.37;91.70
13486;BME280;6815;59.336;17.998;2023-02-16T07:30:40;52228.88;;;-145.37;91.80
13486;BME280;6815;59.336;17.998;2023-02-16T07:33:06;52258.84;;;-145.37;91.93
13486;BME280;6815;59.336;17.998;2023-02-16T07:35:35;52252.84;;;-145.37;91.10
13486;BME280;6815;59.336;17.998;2023-02-16T07:38:03;52248.84;;;-145.37;90.97
13486;BME280;6815;59.336;17.998;2023-02-16T07:40:29;52332.69;;;-145.37;91.37
13486;BME280;6815;59.336;17.998;2023-02-16T07:42:58;52240.88;;;-145.37;91.09
13486;BME280;6815;59.336;17.998;2023-02-16T07:45:24;52230.88;;;-145.37;90.45
13486;BME280;6815;59.336;17.998;2023-02-16T07:47:49;52244.84;;;-145.37;90.51
13486;BME280;6815;59.336;17.998;2023-02-16T07:50:15;52212.91;;;-145.37;91.66
13486;BME280;6815;59.336;17.998;2023-02-16T07:52:40;52262.81;;;-145.37;91.08
13486;BME280;6815;59.336;17.998;2023-02-16T07:55:06;52280.78;;;-145.37;91.47
13486;BME280;6815;59.336;17.998;2023-02-16T07:57:31;52264.81;;;-145.37;91.70
13486;BME280;6815;59.336;17.998;2023-02-16T07:59:57;52212.91;;;-145.37;91.78
13486;BME280;6815;59.336;17.998;2023-02-16T08:02:23;52228.88;;;-145.37;91.19
13486;BME280;6815;59.336;17.998;2023-02-16T08:04:48;52244.84;;;-145.37;91.05
13486;BME280;6815;59.336;17.998;2023-02-16T08:07:17;52252.84;;;-145.37;91.98
13486;BME280;6815;59.336;17.998;2023-02-16T08:09:43;52256.84;;;-145.37;91.51
13486;BME280;6815;59.336;17.998;2023-02-16T08:12:13;52280.78;;;-145.37;91.69
13486;BME280;6815;59.336;17.998;2023-02-16T08:14:39;52206.94;;;-145.37;91.92
13486;BME280;6815;59.336;17.998;2023-02-16T08:17:06;52228.88;;;-145.37;92.15
13486;BME280;6815;59.336;17.998;2023-02-16T08:19:32;52240.88;;;-145.37;91.96
13486;BME280;6815;59.336;17.998;2023-02-16T08:21:59;52266.81;;;-145.37;92.00
13486;BME280;6815;59.336;17.998;2023-02-16T08:24:26;52260.84;;;-145.37;91.86
13486;BME280;6815;59.336;17.998;2023-02-16T08:26:53;52254.84;;;-145.37;92.08
13486;BME280;6815;59.336;17.998;2023-02-16T08:29:21;52246.84;;;-145.37;92.15
13486;BME280;6815;59.336;17.998;2023-02-16T08:31:48;52224.91;;;-145.37;92.85
13486;BME280;6815;59.336;17.998;2023-02-16T08:34:15;52258.84;;;-145.37;92.28
13486;BME280;6815;59.336;17.998;2023-02-16T08:36:43;52206.94;;;-145.37;92.73
13486;BME280;6815;59.336;17.998;2023-02-16T08:39:14;52238.88;;;-145.37;92.63
13486;BME280;6815;59.336;17.998;2023-02-16T08:41:42;52274.81;;;-145.37;92.37
13486;BME280;6815;59.336;17.998;2023-02-16T08:44:08;52230.88;;;-145.37;92.78
13486;BME280;6815;59.336;17.998;2023-02-16T08:46:35;52252.84;;;-145.37;92.59
13486;BME280;6815;59.336;17.998;2023-02-16T08:49:03;52246.84;;;-145.37;92.23
13486;BME280;6815;59.336;17.998;2023-02-16T08:51:32;52234.88;;;-145.37;92.76
13486;BME280;6815;59.336;17.998;2023-02-16T08:54:03;52238.88;;;-145.37;92.60
13486;BME280;6815;59.336;17.998;2023-02-16T08:56:29;52256.84;;;-145.37;92.73
13486;BME280;6815;59.336;17.998;2023-02-16T08:58:55;52232.88;;;-145.37;92.40
13486;BME280;6815;59.336;17.998;2023-02-16T09:01:21;52192.97;;;-145.37;92.74
13486;BME280;6815;59.336;17.998;2023-02-16T09:03:48;52268.81;;;-145.37;92.76
13486;BME280;6815;59.336;17.998;2023-02-16T09:06:16;52244.84;;;-145.37;91.98
13486;BME280;6815;59.336;17.998;2023-02-16T09:08:42;52220.91;;;-145.37;91.97
13486;BME280;6815;59.336;17.998;2023-02-16T09:11:13;52226.91;;;-145.37;91.96
13486;BME280;6815;59.336;17.998;2023-02-16T09:13:40;52240.88;;;-145.37;91.26
13486;BME280;6815;59.336;17.998;2023-02-16T09:16:08;52238.88;;;-145.37;89.99
13486;BME280;6815;59.336;17.998;2023-02-16T09:18:35;52252.84;;;-145.37;91.06
13486;BME280;6815;59.336;17.998;2023-02-16T09:21:06;52292.78;;;-145.37;90.52
13486;BME280;6815;59.336;17.998;2023-02-16T09:23:33;52260.84;;;-145.37;90.34
13486;BME280;6815;59.336;17.998;2023-02-16T09:26:00;52244.84;;;-145.37;90.65
13486;BME280;6815;59.336;17.998;2023-02-16T09:28:27;52242.88;;;-145.37;89.82
13486;BME280;6815;59.336;17.998;2023-02-16T09:30:53;52232.88;;;-145.37;89.28
13486;BME280;6815;59.336;17.998;2023-02-16T09:33:18;52258.84;;;-145.37;88.92
13486;BME280;6815;59.336;17.998;2023-02-16T09:35:44;52248.84;;;-145.37;89.38
13486;BME280;6815;59.336;17.998;2023-02-16T09:38:09;52232.88;;;-145.37;89.86
13486;BME280;6815;59.336;17.998;2023-02-16T09:40:36;52260.84;;;-145.37;89.47
13486;BME280;6815;59.336;17.998;2023-02-16T09:45:40;52230.88;;;-145.37;89.66
13486;BME280;6815;59.336;17.998;2023-02-16T09:48:34;52256.84;;;-145.37;89.82
13486;BME280;6815;59.336;17.998;2023-02-16T09:51:03;52282.78;;;-145.37;89.85
13486;BME280;6815;59.336;17.998;2023-02-16T09:53:40;52250.84;;;-145.37;90.22
13486;BME280;6815;59.336;17.998;2023-02-16T09:56:20;52218.91;;;-145.37;88.81
13486;BME280;6815;59.336;17.998;2023-02-16T09:59:12;52238.88;;;-145.37;89.31
13486;BME280;6815;59.336;17.998;2023-02-16T10:01:58;52198.94;;;-145.37;88.88
13486;BME280;6815;59.336;17.998;2023-02-16T10:07:59;52248.84;;;-145.37;88.27
13486;BME280;6815;59.336;17.998;2023-02-16T10:10:43;52218.91;;;-145.37;88.23
13486;BME280;6815;59.336;17.998;2023-02-16T10:15:55;52228.88;;;-145.37;89.37
13486;BME280;6815;59.336;17.998;2023-02-16T10:18:29;52264.81;;;-145.37;89.58
13486;BME280;6815;59.336;17.998;2023-02-16T10:21:00;52210.91;;;-145.37;89.25
13486;BME280;6815;59.336;17.998;2023-02-16T10:23:40;52232.88;;;-145.37;88.15
13486;BME280;6815;59.336;17.998;2023-02-16T10:26:19;52238.88;;;-145.37;88.49
13486;BME280;6815;59.336;17.998;2023-02-16T10:28:56;52266.81;;;-145.37;87.96
13486;BME280;6815;59.336;17.998;2023-02-16T10:48:08;52242.88;;;-145.37;88.80
13486;BME280;6815;59.336;17.998;2023-02-16T10:53:39;52266.81;;;-145.37;88.00
13486;BME280;6815;59.336;17.998;2023-02-16T10:59:06;52240.88;;;-145.37;88.20
13486;BME280;6815;59.336;17.998;2023-02-16T11:01:39;52334.69;;;-145.37;88.02
13486;BME280;6815;59.336;17.998;2023-02-16T11:04:06;52248.84;;;-145.37;88.53
13486;BME280;6815;59.336;17.998;2023-02-16T11:06:32;52240.88;;;-145.37;88.86
13486;BME280;6815;59.336;17.998;2023-02-16T11:09:00;52252.84;;;-145.37;88.78
13486;BME280;6815;59.336;17.998;2023-02-16T11:11:38;52292.78;;;-145.37;88.45
13486;BME280;6815;59.336;17.998;2023-02-16T11:14:19;52262.81;;;-145.37;88.76
13486;BME280;6815;59.336;17.998;2023-02-16T11:16:45;52286.78;;;-145.37;88.68
13486;BME280;6815;59.336;17.998;2023-02-16T11:19:24;52232.88;;;-145.37;88.52
13486;BME280;6815;59.336;17.998;2023-02-16T11:21:53;52254.84;;;-145.37;88.70
13486;BME280;6815;59.336;17.998;2023-02-16T11:24:27;52250.84;;;-145.37;88.70
13486;BME280;6815;59.336;17.998;2023-02-16T11:29:29;52248.84;;;-145.37;88.64
13486;BME280;6815;59.336;17.998;2023-02-16T11:31:57;52284.78;;;-145.37;88.66
13486;BME280;6815;59.336;17.998;2023-02-16T11:34:34;52234.88;;;-145.37;88.35
13486;BME280;6815;59.336;17.998;2023-02-16T11:37:04;52256.84;;;-145.37;88.27
13486;BME280;6815;59.336;17.998;2023-02-16T11:39:37;52268.81;;;-145.37;87.97
13486;BME280;6815;59.336;17.998;2023-02-16T11:42:17;52266.81;;;-145.37;88.55
13486;BME280;6815;59.336;17.998;2023-02-16T11:44:52;52250.84;;;-145.37;88.42
13486;BME280;6815;59.336;17.998;2023-02-16T11:49:49;52260.84;;;-145.37;88.19
13486;BME280;6815;59.336;17.998;2023-02-16T11:54:50;52228.88;;;-145.37;88.63
13486;BME280;6815;59.336;17.998;2023-02-16T11:57:26;52300.75;;;-145.37;88.17
13486;BME280;6815;59.336;17.998;2023-02-16T11:59:53;52272.81;;;-145.37;87.69
13486;BME280;6815;59.336;17.998;2023-02-16T12:05:56;52212.91;;;-145.37;87.69
13486;BME280;6815;59.336;17.998;2023-02-16T12:16:57;52268.81;;;-145.37;87.34
13486;BME280;6815;59.336;17.998;2023-02-16T12:19:34;52234.88;;;-145.37;87.37
13486;BME280;6815;59.336;17.998;2023-02-16T12:27:58;52230.88;;;-145.37;87.18
13486;BME280;6815;59.336;17.998;2023-02-16T12:33:54;52242.88;;;-145.37;87.07
13486;BME280;6815;59.336;17.998;2023-02-16T12:39:33;52224.91;;;-145.37;87.34
13486;BME280;6815;59.336;17.998;2023-02-16T12:44:45;52232.88;;;-145.37;87.24
13486;BME280;6815;59.336;17.998;2023-02-16T12:47:18;52204.94;;;-145.37;87.40
13486;BME280;6815;59.336;17.998;2023-02-16T12:49:55;52256.84;;;-145.37;87.07
13486;BME280;6815;59.336;17.998;2023-02-16T12:52:34;52264.81;;;-145.37;87.06
13486;BME280;6815;59.336;17.998;2023-02-16T12:58:18;52250.84;;;-145.37;86.87
13486;BME280;6815;59.336;17.998;2023-02-16T13:06:23;52262.81;;;-145.37;86.85
13486;BME280;6815;59.336;17.998;2023-02-16T13:14:36;52246.84;;;-145.37;86.98
13486;BME280;6815;59.336;17.998;2023-02-16T13:17:22;52222.91;;;-145.37;86.81
13486;BME280;6815;59.336;17.998;2023-02-16T13:19:50;52248.84;;;-145.37;86.85
13486;BME280;6815;59.336;17.998;2023-02-16T13:27:52;52232.88;;;-145.37;87.01
13486;BME280;6815;59.336;17.998;2023-02-16T13:30:32;52224.91;;;-145.37;86.71
13486;BME280;6815;59.336;17.998;2023-02-16T13:35:33;52248.84;;;-145.37;86.48
13486;BME280;6815;59.336;17.998;2023-02-16T13:41:05;52256.84;;;-145.37;86.48
13486;BME280;6815;59.336;17.998;2023-02-16T13:46:42;52242.88;;;-145.37;86.73
13486;BME280;6815;59.336;17.998;2023-02-16T13:49:29;52248.84;;;-145.37;86.56
13486;BME280;6815;59.336;17.998;2023-02-16T13:51:56;52264.81;;;-145.37;86.62
13486;BME280;6815;59.336;17.998;2023-02-16T13:54:32;52254.84;;;-145.37;86.27
13486;BME280;6815;59.336;17.998;2023-02-16T13:57:00;52222.91;;;-145.37;86.88
13486;BME280;6815;59.336;17.998;2023-02-16T14:01:55;52250.84;;;-145.37;86.34
13486;BME280;6815;59.336;17.998;2023-02-16T14:06:48;52252.84;;;-145.37;86.76
13486;BME280;6815;59.336;17.998;2023-02-16T14:14:43;52228.88;;;-145.37;86.43
13486;BME280;6815;59.336;17.998;2023-02-16T14:22:27;52266.81;;;-145.37;86.41
13486;BME280;6815;59.336;17.998;2023-02-16T14:24:56;52220.91;;;-145.37;86.60
13486;BME280;6815;59.336;17.998;2023-02-16T14:33:16;52244.84;;;-145.37;85.99
13486;BME280;6815;59.336;17.998;2023-02-16T14:36:18;52248.84;;;-145.37;86.69
13486;BME280;6815;59.336;17.998;2023-02-16T14:38:46;52256.84;;;-145.37;86.55
13486;BME280;6815;59.336;17.998;2023-02-16T14:41:23;52276.81;;;-145.37;86.39
13486;BME280;6815;59.336;17.998;2023-02-16T14:57:52;52266.81;;;-145.37;87.12
13486;BME280;6815;59.336;17.998;2023-02-16T15:02:55;52226.91;;;-145.37;87.30
13486;BME280;6815;59.336;17.998;2023-02-16T15:05:24;52268.81;;;-145.37;87.31
13486;BME280;6815;59.336;17.998;2023-02-16T15:07:56;52274.81;;;-145.37;87.32
13486;BME280;6815;59.336;17.998;2023-02-16T15:10:27;52248.84;;;-145.37;87.45
13486;BME280;6815;59.336;17.998;2023-02-16T15:12:54;52264.81;;;-145.37;87.80
13486;BME280;6815;59.336;17.998;2023-02-16T15:15:26;52254.84;;;-145.37;87.31
13486;BME280;6815;59.336;17.998;2023-02-16T15:17:55;52280.78;;;-145.37;87.51
13486;BME280;6815;59.336;17.998;2023-02-16T15:20:31;52288.78;;;-145.37;88.02
13486;BME280;6815;59.336;17.998;2023-02-16T15:23:01;52274.81;;;-145.37;88.06
13486;BME280;6815;59.336;17.998;2023-02-16T15:25:37;52248.84;;;-145.37;87.25
13486;BME280;6815;59.336;17.998;2023-02-16T15:30:36;52236.88;;;-145.37;87.99
13486;BME280;6815;59.336;17.998;2023-02-16T15:33:06;52250.84;;;-145.37;88.14
13486;BME280;6815;59.336;17.998;2023-02-16T15:35:42;52216.91;;;-145.37;88.22